23:58
Airports
History
Links
Donate
Help keep this website running!
PayPal
Bitcoin
This page is community maintained. The information is intended for PC simulator navigation or reference.
Always use approved charts for navigation.
SWQR
Estancia Norteagro
Estancia Norteagro (SWQR)
Boa Vista, Roraima, Brazil
4
Lat/Lng:2° 40' 33" N / 60° 46' 43" W
2.675833 / -60.778611
Elevation:279'ft / 85mMSL
ID / ICAO:SWQR
Runways:1
Longest:02-20
Gravel 1,143m / 3,749ft
Nearby Weather23:00 GMT 2017-12-12
Nearby weather at SBBV, Boa Vista Intl located 13.3 nautical miles from SWQR
Altimeter: 29.77
Visibility: 6.2 statute miles
Wind: 6 knots (from 110°)
Temp: 32°c / 90°f
Humidity: 52.3%

METAR: SBBV 122300Z 11006KT CAVOK 32/21 Q1008

(Powered by phpweather)
Nearby VORs <50NM
Nearby NDBs
Runway 02 / 20
Dimensions:1142.6 x 15.9m 3749' x 52'ft
Surface:Gravel
Runway 02 [A]Runway 20 [B]
Heading:005°TH 185°TH
Lat:
Lng:
2° 40' 14.45"N
60° 46' 44.74"W
2° 40' 51.55"N
60° 46' 41.26"W
User Notes and Comments
2° 40' 33" N / 60° 46' 43" W
Distance To
Airport ID:
Nearby Airports
4 Barra do Vento 2.8 NM
SJQK WNW 299°
(C) Boa Vista Intl 13.3 NM
SBBV ( WX ) NNE 27°
4 Novo Intento 13.3 NM
SWNN ENE 57°
(U) Pouso da Aguia 15.1 NM
SWPD ENE 60°
4 Ouro Fino 18.6 NM
SWOF NNE 12°
4 Fazenda Sao Marco 32.9 NM
SWSK NE 38°
4 Manoa - Pium 51.6 NM
SJLP ENE 65°
VFR Chart
Flight Planning at SkyVector.com